LFGJ/DLE METAR and TAF weather

Enter ICAO airport designator
Station Type Date Time Source
LFGJ METAR 2020/11/27 15:00 UTC NOAA

LFGJ 271500Z AUTO 04002KT CAVOK 14/06 Q1016 NOSIG


Station Type Date Time Source
LFGJ Decoded METAR 2020/11/27 15:00 UTC NOAA

Dole Tavaux, France (LFGJ) 47-02-34N 005-26-06E
Nov 27, 2020 - 10:00 AM EST / 2020.11.27 1500 UTC
Wind: from the NE (040 degrees) at 2 MPH (2 KT):0
Visibility: greater than 7 mile(s):0
Temperature: 57 F (14 C)
Dew Point: 42 F (6 C)
Relative Humidity: 58%
Pressure (altimeter): 30.00 in. Hg (1016 hPa)
ob: LFGJ 271500Z AUTO 04002KT CAVOK 14/06 Q1016 NOSIG
cycle: 15

Station Type Date Time Source
LFGJ TAF 2020/06/22 09:21 UTC NOAA

TAF LFGJ 220800Z 2209/2221 01008KT 9999 FEW035 BKN053
BECMG 2212/2215 CAVOK

Example: see airport list